Bookmark and Share
Track history (hours):
 

Ct Wicklow

Last reported at 2012-Jul-26 17:28 UTC. Time now 2014-Apr-19 09:28 UTC.
Position N 36°08' W 005°23'.
Warning: this ship's position is years out of date!

Length 90 m; draft 5.4 m.

Type: Tanker. MMSI: 236513000.

NotesDate/timePositionNaut miles runAvg speedWind from/ knotsBaromVisibWave heightAir tempDewpointWater temp
2012-Jul-26 17:28N 36°08' W 005°23'0 0.1
2012-Jul-26 16:28N 36°08' W 005°23'0 0.0
2012-Jul-26 14:28N 36°08' W 005°23'0 0.1
2012-Jul-26 13:28N 36°08' W 005°23'1 1.1
2012-Jul-26 12:28N 36°07' W 005°22'0 0.0
2012-Jul-26 11:28N 36°07' W 005°22'0 0.2
2012-Jul-26 10:31N 36°07' W 005°22'3 0.2
2012-Jul-25 20:27N 36°10' W 005°23'1 1.2
2012-Jul-25 19:28N 36°11' W 005°24'0 0.0
2012-Jul-25 18:28N 36°11' W 005°24'0 0.0
2012-Jul-25 17:28N 36°11' W 005°24'0 0.0
2012-Jul-25 16:28N 36°11' W 005°24'0 0.0
2012-Jul-25 15:28N 36°11' W 005°24'0 0.2
2012-Jul-25 14:33N 36°11' W 005°24'1 1.4
2012-Jul-25 13:28N 36°09' W 005°23'1 0.9
2012-Jul-25 12:28N 36°09' W 005°22'0 0.0
2012-Jul-25 11:28N 36°09' W 005°22'0 0.0
2012-Jul-25 10:34N 36°09' W 005°22'2 1.7
2012-Jul-25 09:33N 36°07' W 005°22'0 0.1
2012-Jul-25 07:27N 36°07' W 005°21'0 0.0
2012-Jul-25 06:30N 36°07' W 005°21'0 0.0
2012-Jul-25 05:33N 36°07' W 005°21'0 0.1
2012-Jul-25 04:36N 36°07' W 005°21'0 0.0
2012-Jul-25 03:30N 36°07' W 005°21'0 0.5
2012-Jul-25 02:33N 36°07' W 005°22'0 0.1
2012-Jul-25 01:29N 36°07' W 005°22'0 0.2
2012-Jul-25 00:32N 36°07' W 005°21'0 0.1
2012-Jul-24 22:29N 36°07' W 005°22'0 0.0
2012-Jul-24 21:29N 36°07' W 005°22'2 0.8
2012-Jul-24 19:33N 36°09' W 005°22'0 0.0
2012-Jul-24 18:33N 36°09' W 005°22'0 0.0
2012-Jul-24 17:30N 36°09' W 005°22'0 0.0
2012-Jul-24 16:33N 36°09' W 005°22'0 0.1
2012-Jul-24 15:27N 36°09' W 005°22'0 0.1
2012-Jul-24 14:30N 36°09' W 005°22'2 1.0
2012-Jul-24 12:24N 36°11' W 005°24'0 0.0
2012-Jul-24 11:27N 36°11' W 005°24'0 0.0
2012-Jul-24 10:51N 36°11' W 005°24'0 0.0
2012-Jul-24 09:33N 36°11' W 005°24'0 0.0
2012-Jul-24 08:33N 36°11' W 005°24'0 0.0
2012-Jul-24 07:33N 36°11' W 005°24'0 0.0
2012-Jul-24 06:33N 36°11' W 005°24'0 0.0
2012-Jul-24 05:27N 36°11' W 005°24'0 0.0
2012-Jul-24 04:36N 36°11' W 005°24'0 0.0
2012-Jul-24 03:33N 36°11' W 005°24'0 0.0
2012-Jul-24 02:30N 36°11' W 005°24'0 0.0
2012-Jul-24 01:33N 36°11' W 005°24'1 1.4
2012-Jul-24 00:33N 36°09' W 005°23'2 2.1
2012-Jul-23 23:32N 36°07' W 005°22'0 0.2
2012-Jul-23 22:32N 36°07' W 005°22'0 0.1
2012-Jul-23 21:29N 36°07' W 005°22'0 0.0
2012-Jul-23 20:32N 36°07' W 005°22'0 0.0
2012-Jul-23 19:32N 36°07' W 005°22'0 0.0
2012-Jul-23 16:29N 36°07' W 005°22'0 0.4
2012-Jul-23 15:30N 36°07' W 005°22'0 0.5
2012-Jul-23 14:29N 36°07' W 005°21'0 0.1
2012-Jul-23 13:32N 36°07' W 005°21'0 0.1
2012-Jul-23 12:32N 36°07' W 005°21'0 0.1
2012-Jul-23 11:29N 36°07' W 005°21'0 0.2
2012-Jul-23 10:37N 36°07' W 005°21'3 2.4
2012-Jul-23 09:33N 36°09' W 005°23'  
2012-Jul-17 23:34N 36°08' W 005°26'0 0.0
2012-Jul-17 22:28N 36°08' W 005°26'0 0.0
2012-Jul-17 21:28N 36°08' W 005°26'0 0.0
2012-Jul-17 20:28N 36°08' W 005°26'0 0.4
2012-Jul-17 19:33N 36°09' W 005°26'2 2.4
2012-Jul-17 18:33N 36°08' W 005°23'1 1.2
2012-Jul-17 17:30N 36°07' W 005°22'0 0.0
2012-Jul-17 16:33N 36°07' W 005°22'0 0.0
2012-Jul-17 15:33N 36°07' W 005°22'0 0.0
2012-Jul-17 14:30N 36°07' W 005°22'0 0.0
2012-Jul-17 13:30N 36°07' W 005°22'0 0.0
2012-Jul-17 12:33N 36°07' W 005°22'0 0.0
2012-Jul-17 11:30N 36°07' W 005°22'1 0.6
2012-Jul-17 10:33N 36°07' W 005°23'0 0.5
2012-Jul-17 09:33N 36°08' W 005°23'0 0.1
2012-Jul-17 08:33N 36°08' W 005°23'0 0.0
2012-Jul-17 07:33N 36°08' W 005°23'1 0.6
2012-Jul-17 06:33N 36°08' W 005°23'1 1.3
2012-Jul-17 05:32N 36°10' W 005°23'0 0.0
2012-Jul-17 04:35N 36°10' W 005°23'0 0.0
2012-Jul-17 03:32N 36°10' W 005°23'0 0.0
2012-Jul-17 02:32N 36°10' W 005°23'0 0.0
2012-Jul-17 01:32N 36°10' W 005°23'2 2.0
2012-Jul-17 00:33N 36°08' W 005°22'1 0.5
2012-Jul-16 23:32N 36°07' W 005°22'0 0.0
2012-Jul-16 22:32N 36°07' W 005°22'0 0.0
2012-Jul-16 21:32N 36°07' W 005°22'0 0.2
2012-Jul-16 20:23N 36°07' W 005°22'0 0.1
2012-Jul-16 19:32N 36°07' W 005°22'2 1.6
2012-Jul-16 18:32N 36°08' W 005°23'2 2.0
2012-Jul-16 17:33N 36°07' W 005°22'  

Dump ship's entire track history

sailing weather and tide predictions

Ct Wicklow — ZDJD8 — position and weather